createdAt,value
2019-03-26T00:01:47.135Z,82.79
2019-03-26T00:04:17.974Z,81.79
2019-03-26T00:06:49.395Z,81.92
2019-03-26T00:09:19.952Z,81.97
2019-03-26T00:11:49.395Z,82.04
2019-03-26T00:14:20.030Z,81.79
2019-03-26T00:16:50.902Z,81.77
2019-03-26T00:19:29.613Z,81.42
2019-03-26T00:21:59.088Z,81.65
2019-03-26T00:24:28.968Z,81.35
2019-03-26T00:26:58.861Z,81.13
2019-03-26T00:29:28.691Z,81.62
2019-03-26T00:31:58.296Z,81.04
2019-03-26T00:34:27.878Z,81.45
2019-03-26T00:36:58.031Z,81.69
2019-03-26T00:39:28.888Z,81.51
2019-03-26T00:42:00.178Z,81.54
2019-03-26T00:44:30.551Z,81.01
2019-03-26T00:47:00.314Z,81.07
2019-03-26T00:49:32.936Z,81.42
2019-03-26T00:52:02.738Z,81.32
2019-03-26T00:54:32.206Z,81.07
2019-03-26T00:57:02.658Z,81.16
2019-03-26T00:59:32.809Z,81.01
2019-03-26T01:02:02.564Z,80.65
2019-03-26T01:04:33.568Z,80.27
2019-03-26T01:07:03.749Z,80.72
2019-03-26T01:09:33.302Z,80.31
2019-03-26T01:12:03.195Z,80.32
2019-03-26T01:14:33.351Z,80.30
2019-03-26T01:17:04.177Z,80.36
2019-03-26T01:19:34.840Z,80.29
2019-03-26T01:22:04.409Z,80.06
2019-03-26T01:24:34.816Z,80.48
2019-03-26T01:27:04.282Z,80.11
2019-03-26T01:29:34.354Z,79.89
2019-03-26T01:32:04.105Z,80.02
2019-03-26T01:34:45.496Z,79.85
2019-03-26T01:37:06.694Z,79.95
2019-03-26T01:39:36.761Z,80.13
2019-03-26T01:42:06.800Z,80.40
2019-03-26T01:44:36.508Z,80.52
2019-03-26T01:47:05.957Z,80.61
2019-03-26T01:49:36.343Z,80.69
2019-03-26T01:52:09.931Z,80.55
2019-03-26T01:54:39.563Z,80.73
2019-03-26T01:57:12.031Z,81.35
2019-03-26T01:59:41.938Z,81.23
2019-03-26T02:02:12.173Z,81.35
2019-03-26T02:04:43.408Z,81.37
2019-03-26T02:07:13.454Z,81.66
2019-03-26T02:09:43.245Z,81.61
2019-03-26T02:12:14.499Z,81.75
2019-03-26T02:14:44.684Z,81.68
2019-03-26T02:17:14.229Z,81.56
2019-03-26T02:19:44.467Z,81.43
2019-03-26T02:22:14.234Z,81.59
2019-03-26T02:24:44.082Z,81.52
2019-03-26T02:27:17.132Z,81.52
2019-03-26T02:29:49.284Z,81.54
2019-03-26T02:32:19.882Z,81.98
2019-03-26T02:34:49.816Z,81.56
2019-03-26T02:37:19.599Z,81.27
2019-03-26T02:39:49.490Z,81.40
2019-03-26T02:42:19.746Z,81.11
2019-03-26T02:44:49.484Z,81.01
2019-03-26T02:47:19.628Z,80.80
2019-03-26T02:49:49.232Z,80.81
2019-03-26T02:52:19.502Z,80.96
2019-03-26T02:54:49.104Z,81.09
2019-03-26T02:57:20.667Z,81.01
2019-03-26T02:59:50.766Z,80.97
2019-03-26T03:02:20.635Z,80.65
2019-03-26T03:04:51.317Z,80.70
2019-03-26T03:07:21.042Z,80.93
2019-03-26T03:09:50.944Z,80.98
2019-03-26T03:12:21.300Z,80.52
2019-03-26T03:14:52.692Z,80.74
2019-03-26T03:17:22.603Z,80.70
2019-03-26T03:19:53.196Z,80.73
2019-03-26T03:22:23.914Z,80.98
2019-03-26T03:24:53.821Z,81.59
2019-03-26T03:27:26.449Z,81.35
2019-03-26T03:29:57.794Z,81.54
2019-03-26T03:32:32.180Z,81.28
2019-03-26T03:35:02.746Z,81.02
2019-03-26T03:37:32.672Z,81.14
2019-03-26T03:40:02.732Z,80.79
2019-03-26T03:42:32.299Z,81.07
2019-03-26T03:45:01.980Z,81.11
2019-03-26T03:47:34.371Z,80.78
2019-03-26T03:50:04.478Z,81.08
2019-03-26T03:52:46.161Z,81.35
2019-03-26T03:55:16.763Z,81.60
2019-03-26T03:57:52.566Z,81.64
2019-03-26T04:00:36.396Z,81.56
2019-03-26T04:03:09.153Z,81.64
2019-03-26T04:05:41.190Z,81.71
2019-03-26T04:08:11.050Z,81.47
2019-03-26T04:10:40.977Z,80.97
2019-03-26T04:13:11.464Z,80.85
2019-03-26T04:15:42.460Z,81.31
2019-03-26T04:18:15.461Z,81.17
2019-03-26T04:20:45.428Z,80.79
2019-03-26T04:23:17.949Z,80.76
2019-03-26T04:25:50.562Z,80.75
2019-03-26T04:28:20.232Z,81.02
2019-03-26T04:30:50.399Z,81.12
2019-03-26T04:33:21.165Z,80.88
2019-03-26T04:35:53.437Z,80.87
2019-03-26T04:38:24.235Z,80.68
2019-03-26T04:40:54.141Z,80.41
2019-03-26T04:43:25.119Z,80.27
2019-03-26T04:46:07.352Z,80.03
2019-03-26T04:52:21.539Z,79.83
2019-03-26T04:54:51.249Z,79.61
2019-03-26T04:57:21.105Z,79.54
2019-03-26T04:59:51.713Z,79.31
2019-03-26T05:02:22.250Z,79.32
2019-03-26T05:04:51.795Z,79.63
2019-03-26T05:07:24.922Z,79.73
2019-03-26T05:09:55.582Z,79.55
2019-03-26T05:12:25.870Z,78.92
2019-03-26T05:14:55.246Z,78.19
2019-03-26T05:17:24.822Z,78.21
2019-03-26T05:19:54.763Z,78.35
2019-03-26T05:22:24.704Z,78.75
2019-03-26T05:24:54.114Z,78.45
2019-03-26T05:33:41.233Z,78.47
2019-03-26T05:34:28.016Z,78.62
2019-03-26T05:36:58.330Z,78.79
2019-03-26T05:39:27.921Z,78.84
2019-03-26T05:41:57.593Z,78.91
2019-03-26T05:44:27.773Z,79.04
2019-03-26T05:46:58.175Z,79.04
2019-03-26T05:49:28.509Z,78.89
2019-03-26T05:51:58.019Z,78.85
2019-03-26T05:54:30.092Z,79.08
2019-03-26T05:57:00.746Z,78.97
2019-03-26T05:59:30.510Z,78.76
2019-03-26T06:06:10.240Z,78.67
2019-03-26T06:09:20.823Z,78.18
2019-03-26T06:11:51.558Z,78.06
2019-03-26T06:14:21.256Z,77.71
2019-03-26T06:16:57.351Z,77.67
2019-03-26T06:19:27.678Z,77.99
2019-03-26T06:21:56.997Z,78.00
2019-03-26T06:24:27.447Z,77.63
2019-03-26T06:26:58.056Z,77.04
2019-03-26T06:29:28.867Z,76.46
2019-03-26T06:31:58.901Z,76.62
2019-03-26T06:34:28.782Z,77.06
2019-03-26T06:36:59.152Z,77.29
2019-03-26T06:39:31.813Z,77.39
2019-03-26T06:42:01.321Z,77.54
2019-03-26T06:44:30.673Z,77.58
2019-03-26T06:47:00.175Z,77.15
2019-03-26T06:49:29.582Z,77.02
2019-03-26T06:51:59.741Z,77.04
2019-03-26T06:54:29.324Z,77.17
2019-03-26T06:56:59.262Z,77.14
2019-03-26T06:59:29.247Z,77.04
2019-03-26T07:01:58.785Z,77.03
2019-03-26T07:04:29.534Z,77.14
2019-03-26T07:06:59.347Z,77.17
2019-03-26T07:09:29.683Z,77.20
2019-03-26T07:11:59.157Z,77.38
2019-03-26T07:14:28.709Z,77.41
2019-03-26T07:16:59.163Z,77.46
2019-03-26T07:19:29.080Z,77.58
2019-03-26T07:21:59.574Z,77.45
2019-03-26T07:24:30.070Z,77.24
2019-03-26T07:26:59.847Z,76.40
2019-03-26T07:29:29.365Z,75.31
2019-03-26T07:31:59.904Z,75.40
2019-03-26T07:34:29.979Z,76.51
2019-03-26T07:36:59.814Z,77.51
2019-03-26T07:39:30.125Z,78.00
2019-03-26T07:42:03.781Z,78.33
2019-03-26T07:44:36.225Z,78.82
2019-03-26T07:47:06.093Z,78.95
2019-03-26T07:49:35.826Z,78.98
2019-03-26T07:52:06.282Z,78.89
2019-03-26T07:54:36.438Z,78.60
2019-03-26T07:57:05.932Z,78.50
2019-03-26T07:59:35.966Z,78.10
2019-03-26T08:02:06.498Z,78.13
2019-03-26T08:04:36.704Z,77.78
2019-03-26T08:07:06.631Z,77.37
2019-03-26T08:09:36.306Z,77.23
2019-03-26T08:12:06.317Z,77.26
2019-03-26T08:14:36.571Z,77.42
2019-03-26T08:17:06.208Z,77.32
2019-03-26T08:19:36.762Z,76.85
2019-03-26T08:22:06.485Z,76.43
2019-03-26T08:24:36.085Z,76.31
2019-03-26T08:27:08.520Z,75.60
2019-03-26T08:29:38.163Z,74.59
2019-03-26T08:32:08.714Z,74.39
2019-03-26T08:34:38.191Z,73.43
2019-03-26T08:37:08.593Z,73.02
2019-03-26T08:39:39.101Z,73.53
2019-03-26T08:42:09.252Z,74.11
2019-03-26T08:44:41.937Z,74.45
2019-03-26T08:47:11.866Z,74.91
2019-03-26T08:49:42.288Z,76.05
2019-03-26T08:52:12.661Z,76.45
2019-03-26T08:54:42.771Z,77.20
2019-03-26T08:57:13.405Z,77.93
2019-03-26T08:59:43.379Z,78.31
2019-03-26T09:02:14.286Z,79.02
2019-03-26T09:04:44.613Z,78.85
2019-03-26T09:07:14.552Z,78.81
2019-03-26T09:09:46.331Z,79.01
2019-03-26T09:12:16.341Z,79.09
2019-03-26T09:14:48.292Z,78.36
2019-03-26T09:17:19.971Z,76.30
2019-03-26T09:19:50.266Z,74.18
2019-03-26T09:22:21.221Z,72.30
2019-03-26T09:24:52.021Z,71.34
2019-03-26T09:27:22.105Z,71.56
2019-03-26T09:29:52.503Z,70.78
2019-03-26T09:32:22.861Z,71.79
2019-03-26T09:34:52.776Z,71.87
2019-03-26T09:37:22.741Z,72.51
2019-03-26T09:39:53.165Z,74.28
2019-03-26T09:42:22.753Z,74.65
2019-03-26T09:44:52.629Z,74.59
2019-03-26T09:47:22.777Z,74.82
2019-03-26T09:49:52.280Z,75.04
2019-03-26T09:52:22.173Z,74.92
2019-03-26T09:54:51.869Z,73.74
2019-03-26T09:57:21.571Z,71.49
2019-03-26T09:59:51.704Z,71.68
2019-03-26T10:02:21.791Z,72.39
2019-03-26T10:05:00.777Z,72.52
2019-03-26T10:07:30.340Z,70.95
2019-03-26T10:10:00.560Z,71.86
2019-03-26T10:12:30.446Z,68.50
2019-03-26T10:15:00.353Z,69.03
2019-03-26T10:17:30.637Z,70.05
2019-03-26T10:20:02.552Z,69.08
2019-03-26T10:22:32.639Z,71.30
2019-03-26T10:25:04.796Z,71.70
2019-03-26T10:27:35.307Z,70.71
2019-03-26T10:30:05.902Z,70.85
2019-03-26T10:32:37.055Z,70.72
2019-03-26T10:35:07.154Z,70.13
2019-03-26T10:37:37.023Z,69.93
2019-03-26T10:40:09.440Z,69.80
2019-03-26T10:42:39.607Z,68.99
2019-03-26T10:45:09.876Z,68.74
2019-03-26T10:47:39.966Z,67.12
2019-03-26T10:50:10.065Z,69.20
2019-03-26T10:52:44.027Z,68.72
2019-03-26T10:55:14.055Z,68.79
2019-03-26T10:57:44.004Z,66.65
2019-03-26T11:00:14.477Z,65.58
2019-03-26T11:02:44.373Z,64.87
2019-03-26T11:05:15.722Z,68.19
2019-03-26T11:07:46.316Z,68.56
2019-03-26T11:10:16.456Z,68.81
2019-03-26T11:12:46.961Z,68.43
2019-03-26T11:15:16.643Z,70.03
2019-03-26T11:17:48.445Z,67.92
2019-03-26T11:20:19.705Z,68.83
2019-03-26T11:22:49.256Z,68.62
2019-03-26T11:25:19.419Z,65.77
2019-03-26T11:27:51.667Z,67.65
2019-03-26T11:30:21.346Z,67.35
2019-03-26T11:32:51.816Z,66.46
2019-03-26T11:35:21.378Z,69.89
2019-03-26T11:37:52.019Z,69.97
2019-03-26T11:40:24.795Z,70.95
2019-03-26T11:42:57.129Z,70.18
2019-03-26T11:45:27.509Z,70.00
2019-03-26T11:47:57.437Z,70.09
2019-03-26T11:50:27.876Z,70.50
2019-03-26T11:52:58.948Z,69.93
2019-03-26T11:55:28.689Z,69.49
2019-03-26T11:57:58.980Z,69.57
2019-03-26T12:00:31.998Z,68.96
2019-03-26T12:03:01.596Z,68.98
2019-03-26T12:05:31.456Z,66.99
2019-03-26T12:08:02.036Z,68.06
2019-03-26T12:10:32.447Z,69.33
2019-03-26T12:13:02.638Z,69.66
2019-03-26T12:15:35.463Z,69.55
2019-03-26T12:18:05.177Z,70.12
2019-03-26T12:20:36.980Z,68.99
2019-03-26T12:23:06.867Z,70.53
2019-03-26T12:25:37.127Z,70.65
2019-03-26T12:28:06.720Z,69.86
2019-03-26T12:30:39.073Z,70.41
2019-03-26T12:33:09.549Z,70.21
2019-03-26T12:35:39.690Z,69.99
2019-03-26T12:38:23.450Z,70.01
2019-03-26T12:40:54.391Z,69.72
2019-03-26T12:43:24.232Z,70.14
2019-03-26T12:45:54.087Z,70.10
2019-03-26T12:48:23.760Z,70.33
2019-03-26T12:50:53.608Z,69.22
2019-03-26T12:53:23.538Z,70.04
2019-03-26T12:55:53.602Z,70.05
2019-03-26T12:58:31.637Z,69.73
2019-03-26T13:00:55.212Z,69.85
2019-03-26T13:03:24.698Z,69.09
2019-03-26T13:05:55.717Z,69.19
2019-03-26T13:08:28.783Z,69.45
2019-03-26T13:10:58.505Z,70.13
2019-03-26T13:13:39.321Z,70.51
2019-03-26T13:16:11.534Z,70.22
2019-03-26T13:18:41.174Z,70.25
2019-03-26T13:21:19.833Z,69.59
2019-03-26T13:23:49.894Z,69.82
2019-03-26T13:26:19.835Z,68.69
2019-03-26T13:28:50.599Z,68.94
2019-03-26T13:31:20.233Z,68.71
2019-03-26T13:33:52.168Z,69.08
2019-03-26T13:36:22.813Z,68.85
2019-03-26T13:49:41.744Z,67.14
2019-03-26T13:52:11.615Z,68.05
2019-03-26T13:54:41.303Z,67.56
2019-03-26T13:57:11.189Z,66.84
2019-03-26T13:59:41.382Z,66.39
2019-03-26T14:02:11.048Z,65.45
2019-03-26T14:04:41.659Z,64.65
2019-03-26T14:07:11.572Z,66.53
2019-03-26T14:09:43.456Z,67.09
2019-03-26T14:12:13.056Z,66.53
2019-03-26T14:14:43.666Z,66.90
2019-03-26T14:17:13.532Z,67.16
2019-03-26T14:19:43.295Z,67.69
2019-03-26T14:22:13.725Z,67.70
2019-03-26T14:24:43.732Z,68.67
2019-03-26T14:27:13.446Z,68.64
2019-03-26T14:29:43.347Z,67.68
2019-03-26T14:32:13.614Z,68.66
2019-03-26T14:34:43.681Z,68.89
2019-03-26T14:37:13.250Z,68.67
2019-03-26T14:39:43.053Z,69.29
2019-03-26T14:42:13.547Z,69.30
2019-03-26T14:44:45.827Z,69.30
2019-03-26T14:47:15.541Z,69.10
2019-03-26T14:49:45.239Z,69.20
2019-03-26T14:52:15.104Z,69.20
2019-03-26T14:54:44.644Z,68.66
2019-03-26T14:57:15.263Z,68.25
2019-03-26T14:59:45.304Z,68.57
2019-03-26T15:02:15.191Z,68.35
2019-03-26T15:04:45.323Z,68.58
2019-03-26T15:07:15.090Z,68.47
2019-03-26T15:09:45.116Z,68.79
2019-03-26T15:12:16.105Z,69.04
2019-03-26T15:14:45.784Z,68.92
2019-03-26T15:17:17.880Z,68.30
2019-03-26T15:19:47.496Z,69.07
2019-03-26T15:22:17.010Z,69.15
2019-03-26T15:24:47.131Z,68.87
2019-03-26T15:27:16.468Z,69.28
2019-03-26T15:29:46.431Z,69.73
2019-03-26T15:32:16.031Z,69.98
2019-03-26T15:34:45.682Z,69.60
2019-03-26T15:37:15.879Z,69.49
2019-03-26T15:39:45.763Z,69.44
2019-03-26T15:42:15.834Z,69.70
2019-03-26T15:44:54.789Z,69.86
2019-03-26T15:47:30.613Z,69.76
2019-03-26T15:50:01.127Z,70.34
2019-03-26T15:52:36.715Z,70.78
2019-03-26T15:55:08.077Z,71.58
2019-03-26T15:57:41.556Z,72.36
2019-03-26T16:00:15.120Z,74.19
2019-03-26T16:02:48.476Z,73.62
2019-03-26T16:05:21.493Z,73.64
2019-03-26T16:07:53.002Z,74.18
2019-03-26T16:10:23.011Z,74.15
2019-03-26T16:12:53.172Z,74.40
2019-03-26T16:15:43.666Z,74.87
2019-03-26T16:18:05.708Z,74.51
2019-03-26T16:20:50.854Z,74.75
2019-03-26T16:23:19.848Z,74.96
2019-03-26T16:25:56.348Z,75.45
2019-03-26T16:28:26.308Z,76.08
2019-03-26T16:31:15.015Z,75.89
2019-03-26T16:33:45.541Z,76.42
2019-03-26T16:36:15.799Z,77.21
2019-03-26T16:38:46.422Z,77.74
2019-03-26T16:41:22.087Z,77.45
2019-03-26T16:43:52.714Z,77.71
2019-03-26T16:46:23.393Z,77.91
2019-03-26T16:48:53.265Z,77.63
2019-03-26T16:51:23.678Z,77.87
2019-03-26T16:53:54.187Z,78.21
2019-03-26T16:56:24.707Z,78.61
2019-03-26T16:58:55.263Z,78.37
2019-03-26T17:01:28.109Z,78.74
2019-03-26T17:04:00.993Z,78.78
2019-03-26T17:06:33.835Z,78.69
2019-03-26T17:09:09.647Z,79.09
2019-03-26T17:11:39.968Z,79.39
2019-03-26T17:14:13.635Z,79.06
2019-03-26T17:16:48.190Z,79.36
2019-03-26T17:19:20.464Z,79.66
2019-03-26T17:21:55.187Z,79.87
2019-03-26T17:24:31.185Z,79.58
2019-03-26T17:27:05.125Z,79.82
2019-03-26T17:29:35.552Z,79.40
2019-03-26T17:32:05.691Z,79.82
2019-03-26T17:34:44.055Z,79.11
2019-03-26T17:41:03.142Z,80.00
2019-03-26T17:43:46.604Z,80.32
2019-03-26T17:46:45.318Z,80.10
2019-03-26T17:49:15.216Z,80.13
2019-03-26T17:51:44.925Z,80.48
2019-03-26T17:54:16.602Z,80.70
2019-03-26T17:56:47.543Z,80.54
2019-03-26T17:59:17.965Z,80.55
2019-03-26T18:01:48.310Z,80.72
2019-03-26T18:04:19.329Z,80.34
2019-03-26T18:06:50.457Z,80.33
2019-03-26T18:09:40.853Z,80.93
2019-03-26T18:15:02.248Z,81.40
2019-03-26T18:17:34.059Z,81.70
2019-03-26T18:20:04.089Z,81.37
2019-03-26T18:22:34.202Z,81.19
2019-03-26T18:25:06.865Z,80.68
2019-03-26T18:27:37.582Z,81.58
2019-03-26T18:30:08.762Z,81.19
2019-03-26T18:32:38.882Z,81.65
2019-03-26T18:35:08.477Z,81.57
2019-03-26T18:37:38.646Z,80.88
2019-03-26T18:40:52.791Z,81.09
2019-03-26T18:43:22.681Z,81.01
2019-03-26T18:45:54.679Z,81.92
2019-03-26T18:48:24.964Z,81.44
2019-03-26T18:50:57.646Z,81.31
2019-03-26T18:53:30.699Z,81.66
2019-03-26T18:56:01.794Z,81.04
2019-03-26T18:58:32.801Z,80.71
2019-03-26T19:01:02.251Z,80.41
2019-03-26T19:03:32.190Z,81.75
2019-03-26T19:06:06.123Z,81.42
2019-03-26T19:08:35.837Z,81.26
2019-03-26T19:11:05.824Z,81.10
2019-03-26T19:13:35.708Z,80.94
2019-03-26T19:16:05.736Z,81.57
2019-03-26T19:18:35.910Z,81.76
2019-03-26T19:21:06.028Z,83.11
2019-03-26T19:23:36.742Z,82.09
2019-03-26T19:26:06.696Z,81.97
2019-03-26T19:28:36.802Z,81.29
2019-03-26T19:31:11.789Z,81.66
2019-03-26T19:33:41.893Z,81.57
2019-03-26T19:36:13.736Z,81.95
2019-03-26T19:38:43.678Z,81.72
2019-03-26T19:41:13.563Z,81.45
2019-03-26T19:43:49.430Z,81.57
2019-03-26T19:46:19.152Z,81.52
2019-03-26T19:48:49.244Z,82.25
2019-03-26T19:51:19.323Z,81.85
2019-03-26T19:53:49.530Z,82.01
2019-03-26T19:56:19.380Z,81.40
2019-03-26T19:58:49.463Z,81.60
2019-03-26T20:01:19.719Z,82.51
2019-03-26T20:03:49.886Z,82.49
2019-03-26T20:06:19.533Z,82.61
2019-03-26T20:08:49.433Z,82.39
2019-03-26T20:11:19.291Z,81.92
2019-03-26T20:13:49.309Z,82.38
2019-03-26T20:16:21.501Z,82.36
2019-03-26T20:18:51.224Z,82.65
2019-03-26T20:21:21.424Z,82.54
2019-03-26T20:23:51.875Z,82.78
2019-03-26T20:26:21.807Z,82.44
2019-03-26T20:28:51.978Z,82.94
2019-03-26T20:31:22.504Z,82.69
2019-03-26T20:33:52.642Z,82.90
2019-03-26T20:36:22.637Z,83.29
2019-03-26T20:38:52.997Z,83.03
2019-03-26T20:41:25.489Z,83.14
2019-03-26T20:43:59.705Z,82.47
2019-03-26T20:46:29.729Z,82.91
2019-03-26T20:48:59.523Z,82.43
2019-03-26T20:51:29.711Z,82.32
2019-03-26T20:53:59.696Z,82.85
2019-03-26T20:56:30.034Z,82.76
2019-03-26T20:59:00.853Z,82.54
2019-03-26T21:01:30.699Z,82.64
2019-03-26T21:04:01.060Z,83.19
2019-03-26T21:06:31.052Z,83.43
2019-03-26T21:09:01.221Z,83.03
2019-03-26T21:11:30.869Z,83.16
2019-03-26T21:14:00.626Z,82.72
2019-03-26T21:16:30.778Z,82.89
2019-03-26T21:19:00.889Z,82.92
2019-03-26T21:21:31.142Z,82.75
2019-03-26T21:24:02.866Z,82.60
2019-03-26T21:26:33.111Z,83.15
2019-03-26T21:29:02.725Z,83.03
2019-03-26T21:31:32.709Z,82.73
2019-03-26T21:34:02.922Z,82.75
2019-03-26T21:36:35.502Z,82.36
2019-03-26T21:39:07.165Z,82.61
2019-03-26T21:41:37.182Z,82.80
2019-03-26T21:44:07.058Z,82.92
2019-03-26T21:46:36.846Z,82.97
2019-03-26T21:49:07.024Z,82.65
2019-03-26T21:51:37.272Z,82.96
2019-03-26T21:54:07.225Z,83.12
2019-03-26T21:56:36.908Z,82.95
2019-03-26T21:59:06.785Z,82.67
2019-03-26T22:01:36.920Z,82.91
2019-03-26T22:04:06.800Z,82.60
2019-03-26T22:06:36.779Z,82.79
2019-03-26T22:09:08.375Z,82.79
2019-03-26T22:11:49.282Z,82.97
2019-03-26T22:14:17.892Z,83.09
2019-03-26T22:16:41.693Z,83.08
2019-03-26T22:19:11.552Z,83.14
2019-03-26T22:21:41.696Z,83.46
2019-03-26T22:24:12.009Z,83.17
2019-03-26T22:26:42.138Z,83.29
2019-03-26T22:29:13.354Z,82.82
2019-03-26T22:31:43.158Z,83.27
2019-03-26T22:34:13.406Z,82.92
2019-03-26T22:36:43.528Z,82.92
2019-03-26T22:39:13.633Z,82.93
2019-03-26T22:41:43.346Z,82.91
2019-03-26T22:44:13.483Z,82.93
2019-03-26T22:46:43.549Z,82.95
2019-03-26T22:49:13.119Z,83.28
2019-03-26T22:51:44.133Z,82.81
2019-03-26T22:54:14.277Z,82.94
2019-03-26T22:56:47.368Z,82.92
2019-03-26T22:59:17.513Z,83.16
2019-03-26T23:01:47.591Z,83.47
2019-03-26T23:04:19.863Z,82.96
2019-03-26T23:06:49.098Z,82.87
2019-03-26T23:09:18.768Z,83.33
2019-03-26T23:11:53.994Z,83.17
2019-03-26T23:14:23.800Z,83.15
2019-03-26T23:16:53.938Z,83.11
2019-03-26T23:19:23.974Z,83.07
2019-03-26T23:21:54.006Z,82.72
2019-03-26T23:24:23.768Z,83.01
2019-03-26T23:26:56.455Z,82.87
2019-03-26T23:29:29.648Z,82.87
2019-03-26T23:32:03.261Z,82.92
2019-03-26T23:34:33.591Z,82.78
2019-03-26T23:37:03.522Z,82.55
2019-03-26T23:39:36.097Z,82.88
2019-03-26T23:42:05.774Z,82.67
2019-03-26T23:44:36.926Z,82.68
2019-03-26T23:47:07.950Z,82.67
2019-03-26T23:49:38.312Z,82.89
2019-03-26T23:52:09.013Z,82.77
2019-03-26T23:54:38.651Z,82.99
2019-03-26T23:57:08.127Z,82.81
2019-03-26T23:59:38.043Z,82.80
